Terminal Aerodrome Forecast
Issued by NWS St Louis, MO

Home | Current Version | Previous Version | Graphics & Text | Print | Product List | Glossary On
Versions: 1 2 3 4 5 6 7 8 9 10 11 12 13 14 15 16 17 18 19 20 21 22 23 24 25 26 27 28 29 30 31 32 33
728
FTUS43 KLSX 221733
TAFSTL
TAF
KSTL 221733Z 2218/2324 21008KT P6SM BKN009
     FM221900 20008KT P6SM SCT025
     FM231100 00000KT 2SM BR SCT030
     FM231600 11005KT P6SM BKN015
     FM231800 14006KT P6SM BKN040=

USA.gov is the U.S. government's official web portal to all federal, state and local government web resources and services.